sensor_id;sensor_type;location;lat;lon;timestamp;P1;durP1;ratioP1;P2;durP2;ratioP2
46222;SDS011;31943;51.410;7.564;2024-02-21T00:01:37;19.10;;;10.40;;
46222;SDS011;31943;51.410;7.564;2024-02-21T00:04:03;20.25;;;10.23;;
46222;SDS011;31943;51.410;7.564;2024-02-21T00:06:29;18.25;;;10.18;;
46222;SDS011;31943;51.410;7.564;2024-02-21T00:08:54;19.92;;;10.68;;
46222;SDS011;31943;51.410;7.564;2024-02-21T00:11:20;22.38;;;10.38;;
46222;SDS011;31943;51.410;7.564;2024-02-21T00:13:45;19.15;;;9.52;;
46222;SDS011;31943;51.410;7.564;2024-02-21T00:16:11;18.70;;;9.45;;
46222;SDS011;31943;51.410;7.564;2024-02-21T00:18:38;19.58;;;10.13;;
46222;SDS011;31943;51.410;7.564;2024-02-21T00:21:04;21.65;;;9.90;;
46222;SDS011;31943;51.410;7.564;2024-02-21T00:23:29;19.65;;;9.93;;
46222;SDS011;31943;51.410;7.564;2024-02-21T00:25:54;18.80;;;9.93;;
46222;SDS011;31943;51.410;7.564;2024-02-21T00:28:20;21.30;;;10.40;;
46222;SDS011;31943;51.410;7.564;2024-02-21T00:30:46;19.65;;;9.25;;
46222;SDS011;31943;51.410;7.564;2024-02-21T00:33:11;23.08;;;10.00;;
46222;SDS011;31943;51.410;7.564;2024-02-21T00:35:39;23.98;;;10.00;;
46222;SDS011;31943;51.410;7.564;2024-02-21T00:38:04;19.35;;;9.55;;
46222;SDS011;31943;51.410;7.564;2024-02-21T00:40:30;16.67;;;8.90;;
46222;SDS011;31943;51.410;7.564;2024-02-21T00:42:56;20.40;;;9.35;;
46222;SDS011;31943;51.410;7.564;2024-02-21T00:45:21;16.85;;;8.95;;
46222;SDS011;31943;51.410;7.564;2024-02-21T00:47:47;20.65;;;9.60;;
46222;SDS011;31943;51.410;7.564;2024-02-21T00:50:12;19.83;;;9.65;;
46222;SDS011;31943;51.410;7.564;2024-02-21T00:52:39;17.60;;;9.35;;
46222;SDS011;31943;51.410;7.564;2024-02-21T00:55:05;20.98;;;10.18;;
46222;SDS011;31943;51.410;7.564;2024-02-21T00:57:31;22.33;;;10.05;;
46222;SDS011;31943;51.410;7.564;2024-02-21T00:59:57;20.17;;;10.35;;
46222;SDS011;31943;51.410;7.564;2024-02-21T01:02:22;19.17;;;9.65;;
46222;SDS011;31943;51.410;7.564;2024-02-21T01:04:48;19.70;;;10.20;;
46222;SDS011;31943;51.410;7.564;2024-02-21T01:07:13;18.80;;;9.32;;
46222;SDS011;31943;51.410;7.564;2024-02-21T01:09:41;20.35;;;9.60;;
46222;SDS011;31943;51.410;7.564;2024-02-21T01:12:06;16.33;;;9.75;;
46222;SDS011;31943;51.410;7.564;2024-02-21T01:14:32;16.50;;;9.20;;
46222;SDS011;31943;51.410;7.564;2024-02-21T01:16:58;22.45;;;10.48;;
46222;SDS011;31943;51.410;7.564;2024-02-21T01:19:23;19.17;;;9.32;;
46222;SDS011;31943;51.410;7.564;2024-02-21T01:21:49;19.73;;;9.35;;
46222;SDS011;31943;51.410;7.564;2024-02-21T01:24:15;22.15;;;9.60;;
46222;SDS011;31943;51.410;7.564;2024-02-21T01:26:42;18.85;;;8.70;;
46222;SDS011;31943;51.410;7.564;2024-02-21T01:29:07;19.50;;;9.27;;
46222;SDS011;31943;51.410;7.564;2024-02-21T01:31:33;17.90;;;10.20;;
46222;SDS011;31943;51.410;7.564;2024-02-21T01:33:59;17.45;;;9.68;;
46222;SDS011;31943;51.410;7.564;2024-02-21T01:36:24;18.95;;;8.98;;
46222;SDS011;31943;51.410;7.564;2024-02-21T01:38:50;17.00;;;8.70;;
46222;SDS011;31943;51.410;7.564;2024-02-21T01:41:15;18.52;;;10.15;;
46222;SDS011;31943;51.410;7.564;2024-02-21T01:43:42;18.85;;;9.60;;
46222;SDS011;31943;51.410;7.564;2024-02-21T01:46:08;15.90;;;9.27;;
46222;SDS011;31943;51.410;7.564;2024-02-21T01:48:34;16.48;;;8.52;;
46222;SDS011;31943;51.410;7.564;2024-02-21T01:51:00;22.00;;;8.88;;
46222;SDS011;31943;51.410;7.564;2024-02-21T01:53:29;17.70;;;9.40;;
46222;SDS011;31943;51.410;7.564;2024-02-21T01:55:56;15.93;;;9.25;;
46222;SDS011;31943;51.410;7.564;2024-02-21T01:58:23;17.20;;;9.05;;
46222;SDS011;31943;51.410;7.564;2024-02-21T02:00:50;17.52;;;8.55;;
46222;SDS011;31943;51.410;7.564;2024-02-21T02:03:16;19.05;;;8.02;;
46222;SDS011;31943;51.410;7.564;2024-02-21T02:05:42;18.83;;;9.20;;
46222;SDS011;31943;51.410;7.564;2024-02-21T02:08:08;19.30;;;8.30;;
46222;SDS011;31943;51.410;7.564;2024-02-21T02:10:34;17.10;;;8.10;;
46222;SDS011;31943;51.410;7.564;2024-02-21T02:13:00;18.83;;;8.10;;
46222;SDS011;31943;51.410;7.564;2024-02-21T02:15:25;23.52;;;9.35;;
46222;SDS011;31943;51.410;7.564;2024-02-21T02:17:52;16.10;;;8.00;;
46222;SDS011;31943;51.410;7.564;2024-02-21T02:20:18;15.93;;;8.00;;
46222;SDS011;31943;51.410;7.564;2024-02-21T02:22:44;15.15;;;8.40;;
46222;SDS011;31943;51.410;7.564;2024-02-21T02:25:13;16.52;;;8.00;;
46222;SDS011;31943;51.410;7.564;2024-02-21T02:27:42;17.70;;;8.80;;
46222;SDS011;31943;51.410;7.564;2024-02-21T02:30:08;18.38;;;8.35;;
46222;SDS011;31943;51.410;7.564;2024-02-21T02:32:34;17.63;;;7.85;;
46222;SDS011;31943;51.410;7.564;2024-02-21T02:35:00;21.70;;;9.27;;
46222;SDS011;31943;51.410;7.564;2024-02-21T02:37:25;13.68;;;7.68;;
46222;SDS011;31943;51.410;7.564;2024-02-21T02:39:51;16.92;;;8.07;;
46222;SDS011;31943;51.410;7.564;2024-02-21T02:42:19;19.42;;;8.35;;
46222;SDS011;31943;51.410;7.564;2024-02-21T02:44:44;20.98;;;9.35;;
46222;SDS011;31943;51.410;7.564;2024-02-21T02:47:10;15.55;;;8.35;;
46222;SDS011;31943;51.410;7.564;2024-02-21T02:49:35;20.85;;;9.48;;
46222;SDS011;31943;51.410;7.564;2024-02-21T02:52:01;19.40;;;8.82;;
46222;SDS011;31943;51.410;7.564;2024-02-21T02:54:26;17.17;;;8.85;;
46222;SDS011;31943;51.410;7.564;2024-02-21T02:56:52;15.20;;;9.05;;
46222;SDS011;31943;51.410;7.564;2024-02-21T02:59:19;17.40;;;8.93;;
46222;SDS011;31943;51.410;7.564;2024-02-21T03:01:44;16.55;;;8.52;;
46222;SDS011;31943;51.410;7.564;2024-02-21T03:04:10;18.25;;;8.82;;
46222;SDS011;31943;51.410;7.564;2024-02-21T03:06:35;17.67;;;8.57;;
46222;SDS011;31943;51.410;7.564;2024-02-21T03:09:01;16.88;;;7.70;;
46222;SDS011;31943;51.410;7.564;2024-02-21T03:11:27;19.80;;;9.10;;
46222;SDS011;31943;51.410;7.564;2024-02-21T03:13:52;17.27;;;8.48;;
46222;SDS011;31943;51.410;7.564;2024-02-21T03:16:19;13.18;;;7.90;;
46222;SDS011;31943;51.410;7.564;2024-02-21T03:18:45;15.45;;;8.35;;
46222;SDS011;31943;51.410;7.564;2024-02-21T03:21:11;14.60;;;7.38;;
46222;SDS011;31943;51.410;7.564;2024-02-21T03:23:37;14.40;;;7.93;;
46222;SDS011;31943;51.410;7.564;2024-02-21T03:26:03;22.17;;;8.40;;
46222;SDS011;31943;51.410;7.564;2024-02-21T03:28:28;16.90;;;7.35;;
46222;SDS011;31943;51.410;7.564;2024-02-21T03:30:54;18.20;;;7.95;;
46222;SDS011;31943;51.410;7.564;2024-02-21T03:33:21;14.68;;;8.32;;
46222;SDS011;31943;51.410;7.564;2024-02-21T03:35:46;19.13;;;8.85;;
46222;SDS011;31943;51.410;7.564;2024-02-21T03:38:12;17.98;;;7.93;;
46222;SDS011;31943;51.410;7.564;2024-02-21T03:40:37;17.27;;;7.75;;
46222;SDS011;31943;51.410;7.564;2024-02-21T03:43:03;14.73;;;8.02;;
46222;SDS011;31943;51.410;7.564;2024-02-21T03:45:29;18.23;;;8.60;;
46222;SDS011;31943;51.410;7.564;2024-02-21T03:47:54;13.52;;;7.88;;
46222;SDS011;31943;51.410;7.564;2024-02-21T03:50:21;15.18;;;7.07;;
46222;SDS011;31943;51.410;7.564;2024-02-21T03:52:47;15.00;;;7.78;;
46222;SDS011;31943;51.410;7.564;2024-02-21T03:55:12;17.20;;;7.72;;
46222;SDS011;31943;51.410;7.564;2024-02-21T03:57:38;15.75;;;7.65;;
46222;SDS011;31943;51.410;7.564;2024-02-21T04:00:04;16.08;;;8.38;;
46222;SDS011;31943;51.410;7.564;2024-02-21T04:02:31;15.52;;;8.52;;
46222;SDS011;31943;51.410;7.564;2024-02-21T04:04:57;13.68;;;7.85;;
46222;SDS011;31943;51.410;7.564;2024-02-21T04:07:24;14.52;;;7.53;;
46222;SDS011;31943;51.410;7.564;2024-02-21T04:09:49;15.57;;;8.25;;
46222;SDS011;31943;51.410;7.564;2024-02-21T04:12:14;16.60;;;8.18;;
46222;SDS011;31943;51.410;7.564;2024-02-21T04:14:40;19.38;;;8.32;;
46222;SDS011;31943;51.410;7.564;2024-02-21T04:17:05;20.48;;;8.32;;
46222;SDS011;31943;51.410;7.564;2024-02-21T04:19:31;17.23;;;8.00;;
46222;SDS011;31943;51.410;7.564;2024-02-21T04:21:56;16.77;;;7.70;;
46222;SDS011;31943;51.410;7.564;2024-02-21T04:24:23;17.33;;;7.20;;
46222;SDS011;31943;51.410;7.564;2024-02-21T04:26:49;13.52;;;7.03;;
46222;SDS011;31943;51.410;7.564;2024-02-21T04:29:14;15.43;;;7.25;;
46222;SDS011;31943;51.410;7.564;2024-02-21T04:31:40;15.05;;;7.38;;
46222;SDS011;31943;51.410;7.564;2024-02-21T04:34:07;13.23;;;7.05;;
46222;SDS011;31943;51.410;7.564;2024-02-21T04:36:33;19.27;;;8.00;;
46222;SDS011;31943;51.410;7.564;2024-02-21T04:38:58;19.10;;;8.63;;
46222;SDS011;31943;51.410;7.564;2024-02-21T04:41:25;14.02;;;7.32;;
46222;SDS011;31943;51.410;7.564;2024-02-21T04:43:51;14.63;;;7.70;;
46222;SDS011;31943;51.410;7.564;2024-02-21T04:46:16;14.48;;;8.25;;
46222;SDS011;31943;51.410;7.564;2024-02-21T04:48:42;14.13;;;7.55;;
46222;SDS011;31943;51.410;7.564;2024-02-21T04:51:07;13.00;;;7.65;;
46222;SDS011;31943;51.410;7.564;2024-02-21T04:53:33;13.80;;;7.43;;
46222;SDS011;31943;51.410;7.564;2024-02-21T04:55:59;15.52;;;6.90;;
46222;SDS011;31943;51.410;7.564;2024-02-21T04:58:26;14.48;;;7.78;;
46222;SDS011;31943;51.410;7.564;2024-02-21T05:00:51;20.95;;;7.30;;
46222;SDS011;31943;51.410;7.564;2024-02-21T05:03:17;14.48;;;6.82;;
46222;SDS011;31943;51.410;7.564;2024-02-21T05:05:43;16.23;;;7.40;;
46222;SDS011;31943;51.410;7.564;2024-02-21T05:08:09;15.15;;;7.25;;
46222;SDS011;31943;51.410;7.564;2024-02-21T05:10:34;16.77;;;7.50;;
46222;SDS011;31943;51.410;7.564;2024-02-21T05:13:00;15.88;;;6.38;;
46222;SDS011;31943;51.410;7.564;2024-02-21T05:15:27;13.60;;;6.82;;
46222;SDS011;31943;51.410;7.564;2024-02-21T05:17:52;14.50;;;6.47;;
46222;SDS011;31943;51.410;7.564;2024-02-21T05:20:18;14.40;;;6.78;;
46222;SDS011;31943;51.410;7.564;2024-02-21T05:22:44;12.30;;;6.57;;
46222;SDS011;31943;51.410;7.564;2024-02-21T05:25:09;12.13;;;5.72;;
46222;SDS011;31943;51.410;7.564;2024-02-21T05:27:35;20.48;;;7.43;;
46222;SDS011;31943;51.410;7.564;2024-02-21T05:30:01;10.75;;;5.70;;
46222;SDS011;31943;51.410;7.564;2024-02-21T05:32:29;13.48;;;6.35;;
46222;SDS011;31943;51.410;7.564;2024-02-21T05:34:54;10.68;;;6.35;;
46222;SDS011;31943;51.410;7.564;2024-02-21T05:37:20;12.75;;;5.80;;
46222;SDS011;31943;51.410;7.564;2024-02-21T05:39:45;12.60;;;6.53;;
46222;SDS011;31943;51.410;7.564;2024-02-21T05:42:12;11.95;;;5.72;;
46222;SDS011;31943;51.410;7.564;2024-02-21T05:44:37;15.10;;;6.50;;
46222;SDS011;31943;51.410;7.564;2024-02-21T05:47:03;12.32;;;6.45;;
46222;SDS011;31943;51.410;7.564;2024-02-21T05:49:30;12.90;;;6.22;;
46222;SDS011;31943;51.410;7.564;2024-02-21T05:51:56;14.23;;;6.45;;
46222;SDS011;31943;51.410;7.564;2024-02-21T05:54:21;15.23;;;6.78;;
46222;SDS011;31943;51.410;7.564;2024-02-21T05:56:47;13.27;;;6.10;;
46222;SDS011;31943;51.410;7.564;2024-02-21T05:59:12;14.18;;;6.07;;
46222;SDS011;31943;51.410;7.564;2024-02-21T06:01:38;15.32;;;5.97;;
46222;SDS011;31943;51.410;7.564;2024-02-21T06:04:04;13.85;;;6.68;;
46222;SDS011;31943;51.410;7.564;2024-02-21T06:06:31;11.77;;;5.65;;
46222;SDS011;31943;51.410;7.564;2024-02-21T06:08:56;9.73;;;5.22;;
46222;SDS011;31943;51.410;7.564;2024-02-21T06:11:22;12.10;;;6.00;;
46222;SDS011;31943;51.410;7.564;2024-02-21T06:13:48;12.30;;;5.93;;
46222;SDS011;31943;51.410;7.564;2024-02-21T06:16:15;13.20;;;5.82;;
46222;SDS011;31943;51.410;7.564;2024-02-21T06:18:40;18.73;;;6.03;;
46222;SDS011;31943;51.410;7.564;2024-02-21T06:21:06;9.98;;;5.90;;
46222;SDS011;31943;51.410;7.564;2024-02-21T06:23:33;12.20;;;6.00;;
46222;SDS011;31943;51.410;7.564;2024-02-21T06:25:58;13.43;;;6.05;;
46222;SDS011;31943;51.410;7.564;2024-02-21T06:28:24;9.48;;;4.88;;
46222;SDS011;31943;51.410;7.564;2024-02-21T06:30:50;14.25;;;5.72;;
46222;SDS011;31943;51.410;7.564;2024-02-21T06:33:16;10.27;;;5.32;;
46222;SDS011;31943;51.410;7.564;2024-02-21T06:35:42;8.73;;;5.03;;
46222;SDS011;31943;51.410;7.564;2024-02-21T06:38:09;11.85;;;5.32;;
46222;SDS011;31943;51.410;7.564;2024-02-21T06:40:36;9.38;;;5.30;;
46222;SDS011;31943;51.410;7.564;2024-02-21T06:43:03;12.05;;;5.35;;
46222;SDS011;31943;51.410;7.564;2024-02-21T06:45:28;13.63;;;5.18;;
46222;SDS011;31943;51.410;7.564;2024-02-21T06:47:55;9.48;;;5.35;;
46222;SDS011;31943;51.410;7.564;2024-02-21T06:50:20;11.82;;;5.00;;
46222;SDS011;31943;51.410;7.564;2024-02-21T06:52:47;15.35;;;4.95;;
46222;SDS011;31943;51.410;7.564;2024-02-21T06:55:13;14.00;;;5.53;;
46222;SDS011;31943;51.410;7.564;2024-02-21T06:57:41;11.15;;;5.50;;
46222;SDS011;31943;51.410;7.564;2024-02-21T07:00:09;8.70;;;5.03;;
46222;SDS011;31943;51.410;7.564;2024-02-21T07:02:35;9.80;;;4.22;;
46222;SDS011;31943;51.410;7.564;2024-02-21T07:05:01;10.98;;;5.15;;
46222;SDS011;31943;51.410;7.564;2024-02-21T07:07:26;10.73;;;5.18;;
46222;SDS011;31943;51.410;7.564;2024-02-21T07:09:52;14.15;;;5.25;;
46222;SDS011;31943;51.410;7.564;2024-02-21T07:12:17;11.75;;;5.45;;
46222;SDS011;31943;51.410;7.564;2024-02-21T07:14:45;9.88;;;5.00;;
46222;SDS011;31943;51.410;7.564;2024-02-21T07:17:10;10.65;;;5.72;;
46222;SDS011;31943;51.410;7.564;2024-02-21T07:19:36;9.18;;;5.50;;
46222;SDS011;31943;51.410;7.564;2024-02-21T07:22:01;10.95;;;5.53;;
46222;SDS011;31943;51.410;7.564;2024-02-21T07:24:27;10.25;;;4.75;;
46222;SDS011;31943;51.410;7.564;2024-02-21T07:26:52;11.98;;;5.43;;
46222;SDS011;31943;51.410;7.564;2024-02-21T07:29:19;10.15;;;4.85;;
46222;SDS011;31943;51.410;7.564;2024-02-21T07:31:46;13.02;;;5.80;;
46222;SDS011;31943;51.410;7.564;2024-02-21T07:34:11;12.77;;;5.55;;
46222;SDS011;31943;51.410;7.564;2024-02-21T07:36:37;10.75;;;5.93;;
46222;SDS011;31943;51.410;7.564;2024-02-21T07:39:02;11.18;;;5.22;;
46222;SDS011;31943;51.410;7.564;2024-02-21T07:41:28;13.60;;;6.40;;
46222;SDS011;31943;51.410;7.564;2024-02-21T07:43:54;11.02;;;5.60;;
46222;SDS011;31943;51.410;7.564;2024-02-21T07:46:19;11.93;;;5.40;;
46222;SDS011;31943;51.410;7.564;2024-02-21T07:48:48;11.10;;;4.95;;
46222;SDS011;31943;51.410;7.564;2024-02-21T07:51:13;8.98;;;5.85;;
46222;SDS011;31943;51.410;7.564;2024-02-21T07:53:39;9.80;;;5.30;;
46222;SDS011;31943;51.410;7.564;2024-02-21T07:56:05;11.43;;;5.80;;
46222;SDS011;31943;51.410;7.564;2024-02-21T07:58:31;12.70;;;6.07;;
46222;SDS011;31943;51.410;7.564;2024-02-21T08:00:57;12.55;;;6.68;;
46222;SDS011;31943;51.410;7.564;2024-02-21T08:03:23;11.85;;;5.88;;
46222;SDS011;31943;51.410;7.564;2024-02-21T08:05:50;10.50;;;6.07;;
46222;SDS011;31943;51.410;7.564;2024-02-21T08:08:15;10.68;;;6.30;;
46222;SDS011;31943;51.410;7.564;2024-02-21T08:10:41;12.63;;;6.00;;
46222;SDS011;31943;51.410;7.564;2024-02-21T08:13:07;10.27;;;6.25;;
46222;SDS011;31943;51.410;7.564;2024-02-21T08:15:32;13.88;;;5.80;;
46222;SDS011;31943;51.410;7.564;2024-02-21T08:17:58;10.23;;;5.78;;
46222;SDS011;31943;51.410;7.564;2024-02-21T08:20:23;13.75;;;6.45;;
46222;SDS011;31943;51.410;7.564;2024-02-21T08:22:50;10.95;;;6.38;;
46222;SDS011;31943;51.410;7.564;2024-02-21T08:25:16;11.88;;;5.55;;
46222;SDS011;31943;51.410;7.564;2024-02-21T08:27:43;10.60;;;6.00;;
46222;SDS011;31943;51.410;7.564;2024-02-21T08:30:09;10.20;;;5.57;;
46222;SDS011;31943;51.410;7.564;2024-02-21T08:32:37;11.60;;;5.55;;
46222;SDS011;31943;51.410;7.564;2024-02-21T08:35:03;9.77;;;5.68;;
46222;SDS011;31943;51.410;7.564;2024-02-21T08:37:29;8.80;;;5.80;;
46222;SDS011;31943;51.410;7.564;2024-02-21T08:39:57;11.63;;;5.15;;
46222;SDS011;31943;51.410;7.564;2024-02-21T08:42:23;13.73;;;5.75;;
46222;SDS011;31943;51.410;7.564;2024-02-21T08:44:48;12.10;;;4.80;;
46222;SDS011;31943;51.410;7.564;2024-02-21T08:47:14;9.75;;;5.40;;
46222;SDS011;31943;51.410;7.564;2024-02-21T08:49:39;10.07;;;5.15;;
46222;SDS011;31943;51.410;7.564;2024-02-21T08:52:05;8.00;;;4.85;;
46222;SDS011;31943;51.410;7.564;2024-02-21T08:54:31;9.75;;;5.15;;
46222;SDS011;31943;51.410;7.564;2024-02-21T08:56:58;8.30;;;4.55;;
46222;SDS011;31943;51.410;7.564;2024-02-21T08:59:24;10.95;;;5.90;;
46222;SDS011;31943;51.410;7.564;2024-02-21T09:01:50;12.75;;;5.90;;
46222;SDS011;31943;51.410;7.564;2024-02-21T09:04:16;11.80;;;7.35;;
46222;SDS011;31943;51.410;7.564;2024-02-21T09:06:42;12.55;;;7.18;;
46222;SDS011;31943;51.410;7.564;2024-02-21T09:09:08;10.98;;;7.05;;
46222;SDS011;31943;51.410;7.564;2024-02-21T09:11:33;13.20;;;6.75;;
46222;SDS011;31943;51.410;7.564;2024-02-21T09:14:01;12.43;;;6.57;;
46222;SDS011;31943;51.410;7.564;2024-02-21T09:16:26;10.45;;;5.45;;
46222;SDS011;31943;51.410;7.564;2024-02-21T09:18:52;9.95;;;5.57;;
46222;SDS011;31943;51.410;7.564;2024-02-21T09:21:18;12.45;;;6.00;;
46222;SDS011;31943;51.410;7.564;2024-02-21T09:23:44;11.82;;;5.15;;
46222;SDS011;31943;51.410;7.564;2024-02-21T09:26:10;10.05;;;4.60;;
46222;SDS011;31943;51.410;7.564;2024-02-21T09:28:36;9.93;;;4.28;;
46222;SDS011;31943;51.410;7.564;2024-02-21T09:31:03;10.05;;;4.38;;
46222;SDS011;31943;51.410;7.564;2024-02-21T09:33:28;9.80;;;4.00;;
46222;SDS011;31943;51.410;7.564;2024-02-21T09:35:54;10.45;;;4.50;;
46222;SDS011;31943;51.410;7.564;2024-02-21T09:38:20;13.18;;;4.10;;
46222;SDS011;31943;51.410;7.564;2024-02-21T09:40:45;8.90;;;3.72;;
46222;SDS011;31943;51.410;7.564;2024-02-21T09:43:11;10.43;;;3.33;;
46222;SDS011;31943;51.410;7.564;2024-02-21T09:51:02;9.75;;;3.78;;
46222;SDS011;31943;51.410;7.564;2024-02-21T09:53:29;10.77;;;3.92;;
46222;SDS011;31943;51.410;7.564;2024-02-21T09:55:57;11.95;;;3.80;;
46222;SDS011;31943;51.410;7.564;2024-02-21T09:58:23;13.45;;;4.35;;
46222;SDS011;31943;51.410;7.564;2024-02-21T10:00:52;10.40;;;4.43;;
46222;SDS011;31943;51.410;7.564;2024-02-21T10:03:17;9.95;;;4.35;;
46222;SDS011;31943;51.410;7.564;2024-02-21T10:05:47;11.32;;;4.88;;
46222;SDS011;31943;51.410;7.564;2024-02-21T10:08:14;8.57;;;4.07;;
46222;SDS011;31943;51.410;7.564;2024-02-21T10:10:40;12.70;;;4.38;;
46222;SDS011;31943;51.410;7.564;2024-02-21T10:13:07;12.52;;;4.85;;
46222;SDS011;31943;51.410;7.564;2024-02-21T10:15:34;11.45;;;4.70;;
46222;SDS011;31943;51.410;7.564;2024-02-21T10:18:00;9.90;;;4.47;;
46222;SDS011;31943;51.410;7.564;2024-02-21T10:20:26;10.98;;;4.35;;
46222;SDS011;31943;51.410;7.564;2024-02-21T10:23:01;9.32;;;4.10;;
46222;SDS011;31943;51.410;7.564;2024-02-21T10:25:27;10.38;;;4.22;;
46222;SDS011;31943;51.410;7.564;2024-02-21T10:27:53;11.77;;;4.38;;
46222;SDS011;31943;51.410;7.564;2024-02-21T10:30:19;8.43;;;4.53;;
46222;SDS011;31943;51.410;7.564;2024-02-21T10:32:48;11.45;;;4.07;;
46222;SDS011;31943;51.410;7.564;2024-02-21T10:35:24;11.02;;;4.88;;
46222;SDS011;31943;51.410;7.564;2024-02-21T10:37:51;13.88;;;4.53;;
46222;SDS011;31943;51.410;7.564;2024-02-21T10:40:18;10.88;;;3.85;;
46222;SDS011;31943;51.410;7.564;2024-02-21T10:42:43;12.38;;;3.95;;
46222;SDS011;31943;51.410;7.564;2024-02-21T10:45:09;11.00;;;4.22;;
46222;SDS011;31943;51.410;7.564;2024-02-21T10:47:35;11.48;;;3.97;;
46222;SDS011;31943;51.410;7.564;2024-02-21T10:50:04;12.85;;;4.13;;
46222;SDS011;31943;51.410;7.564;2024-02-21T10:52:36;10.55;;;4.03;;
46222;SDS011;31943;51.410;7.564;2024-02-21T10:55:11;7.63;;;3.17;;
46222;SDS011;31943;51.410;7.564;2024-02-21T10:57:45;10.27;;;3.70;;
46222;SDS011;31943;51.410;7.564;2024-02-21T11:00:12;10.48;;;3.95;;
46222;SDS011;31943;51.410;7.564;2024-02-21T11:02:42;10.80;;;3.75;;
46222;SDS011;31943;51.410;7.564;2024-02-21T11:05:09;7.80;;;3.13;;
46222;SDS011;31943;51.410;7.564;2024-02-21T11:07:35;7.78;;;3.83;;
46222;SDS011;31943;51.410;7.564;2024-02-21T11:10:02;9.80;;;4.07;;
46222;SDS011;31943;51.410;7.564;2024-02-21T11:12:32;9.20;;;3.03;;
46222;SDS011;31943;51.410;7.564;2024-02-21T11:15:03;7.70;;;3.30;;
46222;SDS011;31943;51.410;7.564;2024-02-21T11:19:55;8.07;;;3.35;;
46222;SDS011;31943;51.410;7.564;2024-02-21T11:22:21;11.15;;;3.42;;
46222;SDS011;31943;51.410;7.564;2024-02-21T11:24:46;7.60;;;3.42;;
46222;SDS011;31943;51.410;7.564;2024-02-21T11:27:12;8.55;;;3.63;;
46222;SDS011;31943;51.410;7.564;2024-02-21T11:29:41;9.80;;;3.40;;
46222;SDS011;31943;51.410;7.564;2024-02-21T11:32:09;9.45;;;3.45;;
46222;SDS011;31943;51.410;7.564;2024-02-21T11:34:38;8.30;;;3.25;;
46222;SDS011;31943;51.410;7.564;2024-02-21T11:37:12;8.43;;;3.30;;
46222;SDS011;31943;51.410;7.564;2024-02-21T11:39:39;10.57;;;3.03;;
46222;SDS011;31943;51.410;7.564;2024-02-21T11:42:06;9.65;;;3.22;;
46222;SDS011;31943;51.410;7.564;2024-02-21T11:44:33;9.15;;;3.33;;
46222;SDS011;31943;51.410;7.564;2024-02-21T11:47:08;13.75;;;3.78;;
46222;SDS011;31943;51.410;7.564;2024-02-21T11:49:35;10.63;;;3.58;;
46222;SDS011;31943;51.410;7.564;2024-02-21T11:52:02;7.70;;;2.97;;
46222;SDS011;31943;51.410;7.564;2024-02-21T11:54:29;9.73;;;3.22;;
46222;SDS011;31943;51.410;7.564;2024-02-21T11:56:54;6.75;;;3.05;;
46222;SDS011;31943;51.410;7.564;2024-02-21T11:59:21;8.65;;;3.08;;
46222;SDS011;31943;51.410;7.564;2024-02-21T12:01:47;6.88;;;3.15;;
46222;SDS011;31943;51.410;7.564;2024-02-21T12:04:15;9.27;;;3.40;;
46222;SDS011;31943;51.410;7.564;2024-02-21T12:06:41;11.80;;;3.60;;
46222;SDS011;31943;51.410;7.564;2024-02-21T12:09:07;8.93;;;3.53;;
46222;SDS011;31943;51.410;7.564;2024-02-21T12:11:33;9.75;;;3.25;;
46222;SDS011;31943;51.410;7.564;2024-02-21T12:13:59;8.38;;;3.42;;
46222;SDS011;31943;51.410;7.564;2024-02-21T12:16:25;8.38;;;3.15;;
46222;SDS011;31943;51.410;7.564;2024-02-21T12:18:52;10.60;;;3.65;;
46222;SDS011;31943;51.410;7.564;2024-02-21T12:21:19;6.50;;;3.20;;
46222;SDS011;31943;51.410;7.564;2024-02-21T12:23:48;7.85;;;3.63;;
46222;SDS011;31943;51.410;7.564;2024-02-21T12:26:13;8.23;;;3.00;;
46222;SDS011;31943;51.410;7.564;2024-02-21T12:28:39;6.90;;;2.90;;
46222;SDS011;31943;51.410;7.564;2024-02-21T12:31:04;7.82;;;2.97;;
46222;SDS011;31943;51.410;7.564;2024-02-21T12:33:30;5.95;;;2.92;;
46222;SDS011;31943;51.410;7.564;2024-02-21T12:35:58;7.85;;;2.55;;
46222;SDS011;31943;51.410;7.564;2024-02-21T12:38:26;8.70;;;2.90;;
46222;SDS011;31943;51.410;7.564;2024-02-21T12:40:52;7.63;;;3.20;;
46222;SDS011;31943;51.410;7.564;2024-02-21T12:43:18;6.88;;;2.85;;
46222;SDS011;31943;51.410;7.564;2024-02-21T12:45:44;7.22;;;2.40;;
46222;SDS011;31943;51.410;7.564;2024-02-21T12:48:09;9.15;;;2.85;;
46222;SDS011;31943;51.410;7.564;2024-02-21T12:50:35;11.07;;;3.22;;
46222;SDS011;31943;51.410;7.564;2024-02-21T12:53:01;7.75;;;2.78;;
46222;SDS011;31943;51.410;7.564;2024-02-21T12:55:29;7.25;;;2.50;;
46222;SDS011;31943;51.410;7.564;2024-02-21T12:57:55;8.02;;;2.83;;
46222;SDS011;31943;51.410;7.564;2024-02-21T13:00:20;7.43;;;2.47;;
46222;SDS011;31943;51.410;7.564;2024-02-21T13:02:46;8.73;;;2.78;;
46222;SDS011;31943;51.410;7.564;2024-02-21T13:05:11;6.88;;;2.40;;
46222;SDS011;31943;51.410;7.564;2024-02-21T13:07:37;8.30;;;2.83;;
46222;SDS011;31943;51.410;7.564;2024-02-21T13:10:03;8.88;;;2.78;;
46222;SDS011;31943;51.410;7.564;2024-02-21T13:12:30;9.93;;;3.38;;
46222;SDS011;31943;51.410;7.564;2024-02-21T13:15:17;10.13;;;3.42;;
46222;SDS011;31943;51.410;7.564;2024-02-21T13:17:43;7.82;;;2.38;;
46222;SDS011;31943;51.410;7.564;2024-02-21T13:20:09;9.05;;;3.08;;
46222;SDS011;31943;51.410;7.564;2024-02-21T13:22:36;10.25;;;2.75;;
46222;SDS011;31943;51.410;7.564;2024-02-21T13:25:02;8.38;;;2.65;;
46222;SDS011;31943;51.410;7.564;2024-02-21T13:27:27;5.53;;;2.90;;
46222;SDS011;31943;51.410;7.564;2024-02-21T13:29:54;9.93;;;3.17;;
46222;SDS011;31943;51.410;7.564;2024-02-21T13:32:20;8.27;;;2.47;;
46222;SDS011;31943;51.410;7.564;2024-02-21T13:34:45;11.43;;;3.30;;
46222;SDS011;31943;51.410;7.564;2024-02-21T13:37:11;12.45;;;2.97;;
46222;SDS011;31943;51.410;7.564;2024-02-21T13:39:37;9.13;;;3.33;;
46222;SDS011;31943;51.410;7.564;2024-02-21T13:42:04;8.95;;;3.35;;
46222;SDS011;31943;51.410;7.564;2024-02-21T13:44:31;10.35;;;3.45;;
46222;SDS011;31943;51.410;7.564;2024-02-21T13:46:57;7.47;;;3.30;;
46222;SDS011;31943;51.410;7.564;2024-02-21T13:49:23;10.23;;;3.17;;
46222;SDS011;31943;51.410;7.564;2024-02-21T13:51:48;7.22;;;3.00;;
46222;SDS011;31943;51.410;7.564;2024-02-21T13:54:14;8.55;;;2.60;;
46222;SDS011;31943;51.410;7.564;2024-02-21T13:56:39;8.20;;;2.92;;
46222;SDS011;31943;51.410;7.564;2024-02-21T13:59:05;7.78;;;3.30;;
46222;SDS011;31943;51.410;7.564;2024-02-21T14:01:31;8.32;;;2.55;;
46222;SDS011;31943;51.410;7.564;2024-02-21T14:03:58;9.23;;;3.05;;
46222;SDS011;31943;51.410;7.564;2024-02-21T14:06:23;8.07;;;2.90;;
46222;SDS011;31943;51.410;7.564;2024-02-21T14:08:49;7.65;;;2.80;;
46222;SDS011;31943;51.410;7.564;2024-02-21T14:11:14;6.90;;;2.55;;
46222;SDS011;31943;51.410;7.564;2024-02-21T14:13:40;9.65;;;3.47;;
46222;SDS011;31943;51.410;7.564;2024-02-21T14:16:08;6.72;;;2.60;;
46222;SDS011;31943;51.410;7.564;2024-02-21T14:18:34;5.18;;;2.40;;
46222;SDS011;31943;51.410;7.564;2024-02-21T14:21:03;8.70;;;2.83;;
46222;SDS011;31943;51.410;7.564;2024-02-21T14:23:29;11.00;;;3.47;;
46222;SDS011;31943;51.410;7.564;2024-02-21T14:25:54;7.20;;;2.78;;
46222;SDS011;31943;51.410;7.564;2024-02-21T14:28:20;6.50;;;2.70;;
46222;SDS011;31943;51.410;7.564;2024-02-21T14:30:45;7.55;;;2.78;;
46222;SDS011;31943;51.410;7.564;2024-02-21T14:33:11;8.98;;;3.00;;
46222;SDS011;31943;51.410;7.564;2024-02-21T14:35:36;8.63;;;3.10;;
46222;SDS011;31943;51.410;7.564;2024-02-21T14:38:04;8.50;;;2.83;;
46222;SDS011;31943;51.410;7.564;2024-02-21T14:40:30;5.60;;;2.33;;